Terminal Aerodrome Forecast
Issued by NWS Missoula, MT

Home | Current Version | Previous Version | Text Only | Print | Product List | Glossary On
Versions: 1 2 3 4 5 6 7 8 9 10 11 12 13 14 15
842
FTUS45 KMSO 221748
TAFBTM
TAF
KBTM 221748Z 2218/2318 VRB05KT P6SM BKN060
     FM222000 27009KT P6SM VCSH SCT020 OVC050
      TEMPO 2223/2303 3SM -SN BR BKN020
     FM230600 29006KT P6SM BKN060=

USA.gov is the U.S. government's official web portal to all federal, state and local government web resources and services.